Time;durP1;ratioP1;P1;durP2;ratioP2;P2;SDS_P1;SDS_P2;PMS_P1;PMS_P2;Temp;Humidity;BMP_temperature;BMP_pressure;BME280_temperature;BME280_humidity;BME280_pressure;Samples;Min_cycle;Max_cycle;Signal;HPM_P1;HPM_P2
2022/10/26 00:02:20;;;;;;;9.00;2.03;;;;;;;21.04;66.13;99695.56;7314747;19;128839;-37
2022/10/26 00:04:45;;;;;;;13.07;2.80;;;;;;;21.04;66.21;99698.16;7312814;19;129376;-38
2022/10/26 00:07:10;;;;;;;10.75;1.90;;;;;;;21.03;66.07;99695.69;7313247;19;129665;-37
2022/10/26 00:09:35;;;;;;;9.27;2.08;;;;;;;20.96;65.94;99682.31;7313791;19;129905;-37
2022/10/26 00:12:02;;;;;;;8.65;1.70;;;;;;;21.03;65.33;99701.75;7315199;19;129033;-36
2022/10/26 00:14:27;;;;;;;14.93;2.88;;;;;;;21.05;65.85;99699.84;7313360;19;130162;-37
2022/10/26 00:16:53;;;;;;;9.30;1.92;;;;;;;20.95;66.37;99683.28;7312057;19;129936;-37
2022/10/26 00:19:18;;;;;;;9.15;1.98;;;;;;;21.04;65.55;99700.78;7313038;19;129199;-38
2022/10/26 00:21:43;;;;;;;7.80;1.55;;;;;;;20.98;65.46;99688.25;7314086;19;129119;-36
2022/10/26 00:24:11;;;;;;;11.88;1.98;;;;;;;21.05;66.03;99702.47;7313907;19;128955;-36
2022/10/26 00:26:36;;;;;;;11.90;2.28;;;;;;;21.05;65.73;99705.06;7311010;19;129276;-37
2022/10/26 00:29:01;;;;;;;5.20;1.42;;;;;;;21.04;65.45;99708.63;7313485;19;128719;-37
2022/10/26 00:31:27;;;;;;;9.88;2.05;;;;;;;21.03;66.05;99717.44;7312024;19;129436;-38
2022/10/26 00:33:54;;;;;;;12.40;2.45;;;;;;;21.04;65.82;99710.44;7313123;19;131522;-36
2022/10/26 00:36:19;;;;;;;6.53;1.58;;;;;;;21.06;65.29;99705.88;7312310;19;129617;-37
2022/10/26 00:38:55;;;;;;;10.73;2.47;;;;;;;21.00;67.16;99707.25;7310127;19;129048;-37
2022/10/26 00:41:24;;;;;;;8.73;1.80;;;;;;;20.99;66.36;99700.34;7310305;19;129032;-36
2022/10/26 00:43:49;;;;;;;14.30;2.35;;;;;;;21.05;66.02;99702.47;7312548;19;129483;-37
2022/10/26 00:46:36;;;;;;;11.50;2.25;;;;;;;21.07;67.13;99703.16;7311597;19;129326;-37
2022/10/26 00:49:12;;;;;;;10.88;2.03;;;;;;;21.07;67.00;99710.16;7314935;19;129501;-37
2022/10/26 00:51:43;;;;;;;7.38;1.50;;;;;;;20.96;66.51;99692.75;7312366;19;130222;-38
2022/10/26 00:54:15;;;;;;;1.83;1.05;;;;;;;21.02;66.61;99700.13;7312968;19;130254;-36
2022/10/26 00:56:41;;;;;;;8.80;1.73;;;;;;;20.95;65.82;99692.91;7309635;19;130958;-37
2022/10/26 00:59:10;;;;;;;12.43;2.10;;;;;;;21.04;66.18;99707.81;7313043;19;129232;-36
2022/10/26 01:01:39;;;;;;;9.88;1.83;;;;;;;21.02;65.81;99707.97;7311620;19;129656;-37
2022/10/26 01:04:04;;;;;;;8.95;1.77;;;;;;;21.04;66.12;99703.41;7313645;19;130264;-37
2022/10/26 01:06:32;;;;;;;9.77;2.17;;;;;;;21.03;66.15;99701.75;7308922;19;129911;-37
2022/10/26 01:08:57;;;;;;;9.40;1.77;;;;;;;21.03;65.54;99707.00;7312290;19;129087;-37
2022/10/26 01:11:23;;;;;;;10.55;2.22;;;;;;;21.05;66.39;99705.06;7310962;19;129267;-37
2022/10/26 01:13:51;;;;;;;8.35;1.60;;;;;;;21.01;65.73;99697.59;7312971;19;129139;-37
2022/10/26 01:16:35;;;;;;;5.28;1.38;;;;;;;21.06;67.00;99703.25;7310409;19;129415;-37
2022/10/26 01:19:30;;;;;;;9.40;2.10;;;;;;;21.07;67.00;99705.78;7311100;19;129026;-37
2022/10/26 01:22:04;;;;;;;9.18;2.05;;;;;;;21.06;66.53;99701.50;7312561;19;129249;-36
2022/10/26 01:24:50;;;;;;;7.75;1.52;;;;;;;21.02;65.81;99702.72;7312471;19;129153;-36
2022/10/26 01:27:50;;;;;;;10.35;2.40;;;;;;;21.10;66.85;99697.66;7308886;19;129199;-37
2022/10/26 01:30:20;;;;;;;9.43;1.85;;;;;;;20.97;65.55;99680.53;7307514;19;129346;-36
2022/10/26 01:32:50;;;;;;;7.75;1.67;;;;;;;21.05;65.97;99694.63;7311650;19;128942;-36
2022/10/26 01:35:27;;;;;;;13.38;2.58;;;;;;;20.98;66.66;99682.19;7310424;19;129089;-37
2022/10/26 01:38:05;;;;;;;;;;;;;;;21.08;67.23;99702.19;7307674;19;129471;-37
2022/10/26 01:40:37;;;;;;;8.48;1.85;;;;;;;21.06;65.24;99706.72;7312054;19;129433;-37
2022/10/26 01:43:07;;;;;;;13.35;2.53;;;;;;;21.02;66.48;99694.88;7311217;19;128770;-37
2022/10/26 01:45:35;;;;;;;13.65;3.13;;;;;;;21.01;66.32;99693.22;7309586;19;129491;-36
2022/10/26 01:48:02;;;;;;;12.25;2.42;;;;;;;21.04;65.37;99692.94;7310333;19;129540;-37
2022/10/26 01:50:29;;;;;;;17.27;3.50;;;;;;;21.02;66.10;99687.06;7308349;19;129147;-37
2022/10/26 01:52:55;;;;;;;7.03;1.55;;;;;;;21.02;66.06;99697.50;7310990;19;128898;-37
2022/10/26 01:55:43;;;;;;;7.22;1.77;;;;;;;21.04;67.56;99690.34;7310219;19;129248;-36
2022/10/26 01:58:22;;;;;;;7.13;1.48;;;;;;;21.04;67.03;99692.94;7308584;19;129881;-36
2022/10/26 02:01:07;;;;;;;3.58;0.88;;;;;;;21.05;66.91;99699.84;7309073;19;129623;-36
2022/10/26 02:03:53;;;;;;;7.22;1.40;;;;;;;21.06;66.68;99691.03;7310592;19;129137;-36
2022/10/26 02:06:24;;;;;;;9.07;1.75;;;;;;;21.06;65.94;99691.03;7308913;19;129401;-36
2022/10/26 02:09:15;;;;;;;8.45;1.58;;;;;;;21.05;66.83;99696.41;7310283;19;129224;-37
2022/10/26 02:11:45;;;;;;;13.05;2.25;;;;;;;21.06;66.03;99696.25;7309801;19;129594;-37
2022/10/26 02:14:30;;;;;;;9.70;1.77;;;;;;;21.02;65.84;99694.88;7310703;19;130933;-37
2022/10/26 02:17:04;;;;;;;11.25;2.42;;;;;;;21.01;67.14;99693.22;7308398;19;131407;-37
2022/10/26 02:19:46;;;;;;;10.02;2.17;;;;;;;21.04;66.92;99692.94;7309089;19;129254;-37
2022/10/26 02:22:31;;;;;;;9.30;2.00;;;;;;;21.03;66.70;99699.16;7311226;19;129363;-37
2022/10/26 02:24:59;;;;;;;6.88;1.30;;;;;;;21.00;66.18;99694.19;7317260;19;128641;-35
2022/10/26 02:27:30;;;;;;;10.45;1.75;;;;;;;21.04;66.31;99692.94;7315028;19;129764;-37
2022/10/26 02:29:58;;;;;;;12.55;2.67;;;;;;;21.03;65.62;99693.91;7316645;19;130869;-38
2022/10/26 02:32:29;;;;;;;11.48;1.73;;;;;;;21.01;66.20;99681.94;7316490;19;128937;-37
2022/10/26 02:34:58;;;;;;;8.98;1.83;;;;;;;21.00;66.01;99686.34;7317520;19;128854;-37
2022/10/26 02:37:26;;;;;;;6.80;1.40;;;;;;;21.03;65.61;99677.41;7314572;19;129269;-37
2022/10/26 02:39:53;;;;;;;9.73;2.00;;;;;;;21.02;65.82;99673.97;7317157;19;129645;-37
2022/10/26 02:42:21;;;;;;;12.00;2.00;;;;;;;20.92;65.64;99657.41;7315898;19;130342;-37
2022/10/26 02:44:56;;;;;;;14.00;2.67;;;;;;;21.02;66.97;99676.59;7316171;19;129560;-38
2022/10/26 02:47:23;;;;;;;8.18;1.48;;;;;;;20.95;65.54;99657.13;7314966;19;129747;-36
2022/10/26 02:49:48;;;;;;;12.07;2.15;;;;;;;21.04;65.82;99677.25;7316360;19;129187;-36
2022/10/26 02:52:30;;;;;;;9.68;1.70;;;;;;;21.01;66.34;99669.69;7313633;19;129334;-37
2022/10/26 02:55:10;;;;;;;16.15;3.33;;;;;;;21.02;66.83;99668.75;7316059;19;128764;-37
2022/10/26 02:57:41;;;;;;;13.82;2.55;;;;;;;21.00;66.07;99670.66;7313867;19;129169;-37
2022/10/26 03:00:11;;;;;;;8.68;1.67;;;;;;;21.00;66.79;99675.91;7315490;19;129800;-37
2022/10/26 03:02:37;;;;;;;5.53;1.30;;;;;;;21.01;65.63;99677.53;7317284;19;129327;-36
2022/10/26 03:05:13;;;;;;;10.02;2.75;;;;;;;21.02;66.84;99673.97;7315727;19;129471;-37
2022/10/26 03:07:38;;;;;;;7.65;1.48;;;;;;;21.02;65.93;99668.75;7314340;19;129009;-36
2022/10/26 03:10:04;;;;;;;13.07;2.30;;;;;;;20.94;65.99;99654.66;7315712;19;131089;-36
2022/10/26 03:12:30;;;;;;;6.50;1.42;;;;;;;21.02;65.14;99673.16;7315899;19;129096;-36
2022/10/26 03:14:55;;;;;;;14.43;3.30;;;;;;;21.04;65.59;99672.03;7315748;19;128857;-36
2022/10/26 03:17:20;;;;;;;8.85;1.58;;;;;;;21.03;65.95;99673.00;7314324;19;130556;-36
2022/10/26 03:19:46;;;;;;;8.57;1.75;;;;;;;21.02;65.56;99668.75;7315429;19;129211;-37
2022/10/26 03:22:11;;;;;;;7.68;1.70;;;;;;;21.03;65.73;99675.63;7315234;19;129071;-36
2022/10/26 03:24:36;;;;;;;10.35;2.25;;;;;;;21.02;65.79;99679.22;7313878;19;129582;-36
2022/10/26 03:27:02;;;;;;;12.65;2.33;;;;;;;21.02;65.53;99673.97;7312370;19;129455;-37
2022/10/26 03:29:27;;;;;;;10.00;1.92;;;;;;;21.01;65.51;99672.31;7315560;19;129382;-37
2022/10/26 03:31:54;;;;;;;8.43;1.63;;;;;;;21.03;65.96;99675.63;7312958;19;129017;-37
2022/10/26 03:34:20;;;;;;;9.95;1.52;;;;;;;21.02;65.63;99668.75;7315411;19;129152;-37
2022/10/26 03:36:45;;;;;;;16.37;3.37;;;;;;;21.00;66.20;99678.50;7311554;19;130216;-38
2022/10/26 03:39:11;;;;;;;8.27;1.95;;;;;;;21.02;65.57;99673.97;7312634;19;129838;-37
2022/10/26 03:41:37;;;;;;;6.72;1.73;;;;;;;21.03;66.22;99674.78;7314696;19;129947;-36
2022/10/26 03:44:02;;;;;;;8.27;1.93;;;;;;;21.00;66.08;99675.06;7315612;19;129699;-36
2022/10/26 03:46:27;;;;;;;17.30;2.88;;;;;;;21.02;65.58;99668.75;7313350;19;129576;-37
2022/10/26 03:48:53;;;;;;;6.10;1.10;;;;;;;21.05;65.60;99668.47;7315715;19;129088;-37
2022/10/26 03:51:18;;;;;;;7.13;1.58;;;;;;;20.98;65.61;99650.84;7313716;19;129290;-37
2022/10/26 03:53:43;;;;;;;9.93;1.58;;;;;;;21.07;65.53;99668.34;7315186;19;129236;-36
2022/10/26 03:56:09;;;;;;;12.45;2.30;;;;;;;21.04;66.24;99677.25;7312622;19;130353;-38
2022/10/26 03:58:34;;;;;;;6.93;1.65;;;;;;;21.01;66.49;99674.91;7312630;19;130224;-37
2022/10/26 04:00:59;;;;;;;16.90;3.70;;;;;;;21.00;66.09;99675.91;7312315;19;130274;-37
2022/10/26 04:03:24;;;;;;;10.45;2.13;;;;;;;21.02;66.07;99673.16;7315659;19;130644;-36
2022/10/26 04:05:50;;;;;;;10.65;2.00;;;;;;;21.04;65.80;99677.25;7313989;19;130110;-37
2022/10/26 04:08:15;;;;;;;6.70;1.25;;;;;;;21.01;65.51;99677.53;7314325;19;129631;-37
2022/10/26 04:10:41;;;;;;;9.15;2.30;;;;;;;21.00;65.71;99670.66;7312643;19;130134;-37
2022/10/26 04:13:08;;;;;;;12.93;2.15;;;;;;;20.97;66.29;99676.16;7314734;19;131340;-37
2022/10/26 04:15:34;;;;;;;10.82;2.08;;;;;;;20.96;66.52;99669.22;7313486;19;129661;-37
2022/10/26 04:18:01;;;;;;;9.48;1.75;;;;;;;21.02;66.28;99673.97;7312787;19;130097;-36
2022/10/26 04:20:28;;;;;;;5.50;1.48;;;;;;;20.98;65.88;99675.19;7313639;19;129870;-37
2022/10/26 04:22:58;;;;;;;9.07;2.03;;;;;;;20.97;66.47;99676.16;7312640;19;130170;-36
2022/10/26 04:25:24;;;;;;;15.77;2.95;;;;;;;20.99;66.22;99669.00;7312840;19;129029;-37
2022/10/26 04:27:49;;;;;;;7.03;1.58;;;;;;;21.00;65.77;99670.66;7311626;19;129101;-37
2022/10/26 04:30:15;;;;;;;7.38;1.40;;;;;;;21.01;65.27;99672.31;7313620;19;129181;-37
2022/10/26 04:32:40;;;;;;;35.17;7.32;;;;;;;20.97;65.79;99665.72;7306401;19;130318;-37
2022/10/26 04:35:05;;;;;;;12.90;2.58;;;;;;;21.04;65.70;99671.22;7304809;19;129465;-35
2022/10/26 04:37:32;;;;;;;19.73;3.97;;;;;;;21.01;65.73;99674.91;7306287;19;130645;-37
2022/10/26 04:39:57;;;;;;;9.50;2.00;;;;;;;21.03;65.56;99673.00;7310962;19;129023;-37
2022/10/26 04:42:23;;;;;;;13.45;2.38;;;;;;;21.02;65.54;99670.53;7312419;19;130344;-37
2022/10/26 04:44:48;;;;;;;13.57;2.85;;;;;;;21.00;65.68;99660.22;7314458;19;128943;-36
2022/10/26 04:47:13;;;;;;;6.68;1.40;;;;;;;20.92;65.59;99652.19;7310836;19;129782;-35
2022/10/26 04:49:38;;;;;;;3.13;0.90;;;;;;;21.01;66.36;99674.91;7312893;19;130447;-38
2022/10/26 04:52:04;;;;;;;14.90;2.50;;;;;;;21.00;66.04;99662.00;7312669;19;131186;-36
2022/10/26 04:54:30;;;;;;;9.05;1.88;;;;;;;21.01;65.84;99656.63;7314298;19;129113;-38
2022/10/26 04:56:55;;;;;;;8.98;1.60;;;;;;;20.92;66.47;99641.72;7310760;19;128957;-38
2022/10/26 04:59:20;;;;;;;8.55;1.65;;;;;;;21.01;66.10;99664.47;7310378;19;129546;-36
2022/10/26 05:01:46;;;;;;;12.98;2.22;;;;;;;21.02;65.81;99657.47;7311444;19;129943;-37
2022/10/26 05:04:11;;;;;;;7.63;1.60;;;;;;;21.01;65.86;99661.03;7313165;19;129315;-38
2022/10/26 05:06:37;;;;;;;7.53;1.63;;;;;;;20.98;65.89;99656.91;7311305;19;129636;-36
2022/10/26 05:09:02;;;;;;;9.68;1.88;;;;;;;20.98;65.79;99658.69;7312677;19;128906;-38
2022/10/26 05:11:28;;;;;;;15.73;3.03;;;;;;;21.01;66.16;99656.63;7311608;19;130517;-37
2022/10/26 05:13:53;;;;;;;11.75;2.25;;;;;;;20.98;65.88;99656.91;7308620;19;130037;-37
2022/10/26 05:16:18;;;;;;;6.97;1.23;;;;;;;21.02;66.11;99655.69;7311336;19;131257;-36
2022/10/26 05:18:48;;;;;;;11.07;1.90;;;;;;;20.99;66.15;99648.09;7311159;19;129150;-37
2022/10/26 05:21:18;;;;;;;10.88;2.00;;;;;;;21.01;65.72;99646.16;7311185;19;129204;-37
2022/10/26 05:23:43;;;;;;;3.97;1.00;;;;;;;20.99;66.17;99642.06;7312473;19;129963;-37
2022/10/26 05:26:09;;;;;;;8.80;1.65;;;;;;;21.01;65.71;99646.16;7310249;19;129433;-37
2022/10/26 05:28:34;;;;;;;9.00;1.70;;;;;;;21.02;65.68;99641.78;7307705;19;129587;-37
2022/10/26 05:30:59;;;;;;;15.95;2.78;;;;;;;21.03;66.18;99639.03;7311403;19;129284;-37
2022/10/26 05:33:25;;;;;;;10.18;2.47;;;;;;;21.01;65.63;99656.63;7311541;19;130147;-36
2022/10/26 05:35:53;;;;;;;9.73;1.77;;;;;;;21.01;65.74;99651.41;7308630;19;129128;-37
2022/10/26 05:38:19;;;;;;;10.63;1.85;;;;;;;21.02;65.19;99653.06;7309291;19;128838;-37
2022/10/26 05:40:52;;;;;;;11.00;2.10;;;;;;;21.02;66.87;99647.00;7312558;19;128804;-38
2022/10/26 05:43:19;;;;;;;8.10;1.50;;;;;;;21.00;65.35;99660.22;7311885;19;129679;-37
2022/10/26 05:45:44;;;;;;;7.47;1.63;;;;;;;21.00;66.07;99660.22;7310752;19;129118;-38
2022/10/26 05:48:10;;;;;;;11.13;2.25;;;;;;;21.00;65.96;99664.59;7312115;19;129797;-38
2022/10/26 05:50:35;;;;;;;12.43;2.33;;;;;;;21.05;65.58;99675.47;7311643;19;129170;-38
2022/10/26 05:53:01;;;;;;;7.63;1.50;;;;;;;20.99;65.27;99669.00;7311397;19;129489;-37
2022/10/26 05:55:27;;;;;;;7.35;1.77;;;;;;;21.01;65.88;99669.69;7310336;19;129758;-37
2022/10/26 05:57:52;;;;;;;9.20;1.77;;;;;;;21.01;66.03;99671.47;7309544;19;129017;-37
2022/10/26 06:00:20;;;;;;;12.38;2.25;;;;;;;21.02;66.11;99667.91;7318448;19;129227;-37
2022/10/26 06:03:07;;;;;;;6.78;1.30;;;;;;;20.88;67.02;99656.00;7318100;19;130621;-37
2022/10/26 06:05:52;;;;;;;4.57;1.38;;;;;;;20.89;67.44;99651.63;7316755;19;129584;-37
2022/10/26 06:08:19;;;;;;;7.93;1.75;;;;;;;20.97;65.95;99670.94;7318537;19;129326;-37
2022/10/26 06:10:45;;;;;;;8.93;1.52;;;;;;;20.98;65.68;99672.59;7318061;19;129205;-37
2022/10/26 06:13:10;;;;;;;9.98;1.95;;;;;;;20.97;65.87;99673.56;7316867;19;129491;-37
2022/10/26 06:15:50;;;;;;;10.88;2.00;;;;;;;20.99;66.84;99673.41;7317286;19;129132;-38
2022/10/26 06:18:34;;;;;;;8.05;1.48;;;;;;;20.98;65.74;99677.81;7316617;19;129220;-38
2022/10/26 06:21:31;;;;;;;7.25;2.53;;;;;;;21.00;66.78;99683.72;7316767;19;129281;-37
2022/10/26 06:24:21;;;;;;;10.38;2.03;;;;;;;20.99;67.03;99694.31;7318824;19;129589;-37
2022/10/26 06:26:52;;;;;;;7.78;1.70;;;;;;;20.97;66.61;99698.81;7316443;19;129428;-37
2022/10/26 06:29:30;;;;;;;8.63;1.70;;;;;;;20.99;67.26;99702.16;7316879;19;129099;-37
2022/10/26 06:31:56;;;;;;;7.38;1.45;;;;;;;21.00;66.31;99709.03;7318808;19;128966;-37
2022/10/26 06:34:26;;;;;;;8.80;1.98;;;;;;;21.01;65.73;99708.91;7318649;19;130035;-38
2022/10/26 06:36:51;;;;;;;14.07;2.40;;;;;;;20.99;65.62;99710.81;7314136;19;129731;-37
2022/10/26 06:39:19;;;;;;;8.80;1.75;;;;;;;21.00;66.21;99716.88;7316307;19;129262;-37
2022/10/26 06:41:44;;;;;;;9.10;1.63;;;;;;;20.98;66.20;99713.56;7317156;19;129166;-37
2022/10/26 06:44:21;;;;;;;7.60;1.65;;;;;;;20.89;66.14;99693.44;7317199;19;129695;-37
2022/10/26 06:46:58;;;;;;;9.20;2.30;;;;;;;20.98;66.01;99716.19;7315440;19;129198;-37
2022/10/26 06:49:38;;;;;;;9.32;2.13;;;;;;;20.96;67.02;99713.66;7316632;19;129401;-37
2022/10/26 06:52:06;;;;;;;8.52;1.65;;;;;;;20.97;65.89;99712.75;7317291;19;129315;-38
2022/10/26 06:54:53;;;;;;;4.75;1.48;;;;;;;20.97;67.74;99709.28;7316646;19;129462;-35
2022/10/26 06:57:20;;;;;;;8.73;1.80;;;;;;;20.99;65.61;99707.41;7313965;19;129217;-36
2022/10/26 06:59:52;;;;;;;11.02;2.38;;;;;;;20.99;66.03;99708.19;7311144;19;129509;-37
2022/10/26 07:02:18;;;;;;;12.73;2.33;;;;;;;20.91;66.13;99696.75;7313436;19;129427;-38
2022/10/26 07:04:44;;;;;;;12.90;2.47;;;;;;;20.98;65.76;99708.34;7317341;19;130486;-37
2022/10/26 07:07:27;;;;;;;9.32;1.90;;;;;;;20.98;67.10;99714.41;7312646;19;131569;-38
2022/10/26 07:09:53;;;;;;;7.85;1.60;;;;;;;21.02;65.58;99720.19;7316309;19;129659;-37
2022/10/26 07:12:18;;;;;;;6.68;1.30;;;;;;;20.97;66.39;99717.97;7316148;19;129084;-37
2022/10/26 07:14:44;;;;;;;11.82;2.28;;;;;;;20.97;65.32;99715.38;7315628;19;129071;-37
2022/10/26 07:17:09;;;;;;;13.00;2.38;;;;;;;20.97;65.41;99722.34;7314234;19;129444;-37
2022/10/26 07:19:35;;;;;;;3.17;1.13;;;;;;;20.91;66.07;99707.19;7313688;19;129133;-37
2022/10/26 07:22:01;;;;;;;7.28;1.48;;;;;;;21.02;65.59;99723.66;7316040;19;129182;-37
2022/10/26 07:24:28;;;;;;;9.47;1.90;;;;;;;21.00;66.02;99717.72;7316599;19;128969;-37
2022/10/26 07:26:54;;;;;;;13.13;3.17;;;;;;;20.98;65.60;99722.25;7312240;19;129526;-37
2022/10/26 07:29:21;;;;;;;10.02;1.80;;;;;;;20.98;66.29;99717.00;7315549;19;130290;-38
2022/10/26 07:31:46;;;;;;;;;;;;;;;20.94;67.30;99707.75;7314208;19;129918;-38
2022/10/26 07:34:12;;;;;;;7.18;1.48;;;;;;;20.99;65.54;99710.81;7315949;19;129526;-38
2022/10/26 07:36:38;;;;;;;8.77;1.88;;;;;;;20.99;65.48;99716.03;7313245;19;129120;-36
2022/10/26 07:39:03;;;;;;;9.02;1.70;;;;;;;20.99;65.42;99725.69;7314076;19;128851;-37
2022/10/26 07:41:29;;;;;;;8.32;1.65;;;;;;;20.99;65.50;99721.28;7314759;19;129605;-37
2022/10/26 07:43:54;;;;;;;16.98;2.42;;;;;;;21.02;65.80;99734.09;7314530;19;129018;-37
2022/10/26 07:46:20;;;;;;;8.05;1.45;;;;;;;20.98;65.60;99734.47;7313132;19;130037;-37
2022/10/26 07:48:45;;;;;;;8.38;1.70;;;;;;;20.99;65.57;99729.09;7316110;19;128770;-37
2022/10/26 07:51:10;;;;;;;5.55;1.23;;;;;;;20.98;66.19;99732.69;7314601;19;129395;-37
2022/10/26 07:53:36;;;;;;;12.45;2.17;;;;;;;20.98;65.74;99724.84;7315819;19;129271;-37
2022/10/26 07:56:01;;;;;;;8.27;1.58;;;;;;;20.97;66.14;99723.22;7314393;19;129248;-37
2022/10/26 07:58:27;;;;;;;7.22;1.42;;;;;;;20.97;65.96;99728.44;7314151;19;128903;-37
2022/10/26 08:00:53;;;;;;;8.93;1.88;;;;;;;21.01;65.54;99726.38;7314940;19;128788;-37
2022/10/26 08:03:19;;;;;;;11.87;2.17;;;;;;;21.00;65.52;99725.56;7314948;19;129334;-37
2022/10/26 08:05:50;;;;;;;13.13;2.47;;;;;;;20.99;66.14;99731.72;7312626;19;130443;-36
2022/10/26 08:08:16;;;;;;;7.25;1.50;;;;;;;20.99;65.75;99729.09;7314181;19;129108;-37
2022/10/26 08:10:42;;;;;;;;;;;;;;;21.04;67.67;99734.75;7316435;19;129100;-37
2022/10/26 08:13:08;;;;;;;12.48;2.25;;;;;;;20.99;66.23;99734.34;7315571;19;129784;-37
2022/10/26 08:15:33;;;;;;;4.47;1.13;;;;;;;21.00;65.75;99732.56;7314640;19;129805;-36
2022/10/26 08:17:59;;;;;;;7.90;1.75;;;;;;;20.98;66.04;99724.84;7312632;19;129180;-37
2022/10/26 08:20:24;;;;;;;3.80;1.00;;;;;;;20.98;65.98;99735.31;7313263;19;129030;-37
2022/10/26 08:22:51;;;;;;;12.02;2.28;;;;;;;20.87;66.13;99717.09;7313975;19;129183;-38
2022/10/26 08:25:17;;;;;;;10.02;2.00;;;;;;;20.96;65.55;99736.38;7314357;19;129244;-36
2022/10/26 08:27:42;;;;;;;7.85;1.67;;;;;;;20.99;66.23;99730.91;7312696;19;130828;-37
2022/10/26 08:30:08;;;;;;;2.25;0.80;;;;;;;20.99;65.79;99730.91;7314549;19;129521;-38
2022/10/26 08:32:33;;;;;;;10.87;1.87;;;;;;;20.98;65.44;99729.25;7315691;19;130120;-37
2022/10/26 08:34:59;;;;;;;7.47;1.90;;;;;;;20.90;65.67;99722.03;7314666;19;129536;-37
2022/10/26 08:37:25;;;;;;;8.73;1.67;;;;;;;20.95;66.16;99730.31;7312597;19;129072;-37
2022/10/26 08:39:51;;;;;;;8.93;1.83;;;;;;;20.96;66.41;99731.16;7312779;19;129316;-37
2022/10/26 08:42:21;;;;;;;11.23;1.98;;;;;;;20.95;66.22;99719.88;7315431;19;129096;-38
2022/10/26 08:44:50;;;;;;;4.45;1.17;;;;;;;20.93;66.40;99726.16;7313934;19;129281;-38
2022/10/26 08:47:17;;;;;;;7.95;1.63;;;;;;;20.90;66.24;99727.28;7310573;19;129711;-38
2022/10/26 08:49:42;;;;;;;2.75;1.02;;;;;;;20.83;65.66;99705.22;7312646;19;129612;-37
2022/10/26 08:52:12;;;;;;;13.40;2.50;;;;;;;20.94;66.63;99723.41;7313544;19;129264;-37
2022/10/26 08:54:41;;;;;;;2.47;0.88;;;;;;;20.94;65.96;99728.66;7314171;19;131021;-37
2022/10/26 08:57:24;;;;;;;9.23;2.00;;;;;;;20.94;67.33;99726.03;7311814;19;130590;-38
2022/10/26 08:59:53;;;;;;;8.93;1.48;;;;;;;20.93;66.39;99720.94;7311671;19;129021;-37
2022/10/26 09:02:19;;;;;;;8.32;1.63;;;;;;;20.92;66.10;99714.06;7313776;19;130094;-38
2022/10/26 09:04:45;;;;;;;13.90;2.33;;;;;;;20.94;65.83;99712.97;7313715;19;129833;-37
2022/10/26 09:07:19;;;;;;;6.83;1.63;;;;;;;20.95;67.11;99717.25;7312351;19;129433;-37
2022/10/26 09:10:06;;;;;;;6.60;1.52;;;;;;;20.95;66.81;99711.19;7313786;19;129139;-38
2022/10/26 09:12:51;;;;;;;8.15;1.70;;;;;;;20.95;66.36;99714.63;7313544;19;129602;-37
2022/10/26 09:15:40;;;;;;;3.85;1.10;;;;;;;20.95;66.49;99716.41;7311946;19;129224;-37
2022/10/26 09:18:25;;;;;;;8.98;1.88;;;;;;;20.91;67.60;99708.00;7311846;19;130667;-37
2022/10/26 09:21:15;;;;;;;7.80;1.42;;;;;;;20.89;67.29;99701.28;7313015;19;129007;-37
2022/10/26 09:23:49;;;;;;;2.28;0.75;;;;;;;20.93;67.07;99721.78;7313638;19;129282;-37
2022/10/26 09:26:26;;;;;;;11.23;2.30;;;;;;;20.87;66.61;99711.03;7310912;19;129313;-38
2022/10/26 09:28:52;;;;;;;6.80;1.52;;;;;;;20.93;66.18;99721.78;7313601;19;129394;-37
2022/10/26 09:31:18;;;;;;;13.20;2.50;;;;;;;20.94;66.42;99720.81;7312527;19;128812;-37
2022/10/26 09:33:44;;;;;;;6.40;1.50;;;;;;;20.85;65.75;99705.94;7320181;19;129196;-38
2022/10/26 09:36:17;;;;;;;7.40;1.65;;;;;;;20.93;66.04;99727.00;7318396;19;129231;-37
2022/10/26 09:39:09;;;;;;;10.93;2.10;;;;;;;20.92;67.26;99722.75;7319052;19;129628;-37
2022/10/26 09:41:43;;;;;;;4.22;1.13;;;;;;;20.94;66.83;99733.88;7319245;19;128773;-37
2022/10/26 09:44:08;;;;;;;7.57;1.40;;;;;;;20.90;65.67;99722.03;7319332;19;129802;-37
2022/10/26 09:46:51;;;;;;;12.77;2.45;;;;;;;20.95;67.02;99735.53;7316317;19;129655;-38
2022/10/26 09:49:19;;;;;;;36.05;6.20;;;;;;;20.85;66.27;99713.78;7314729;19;129112;-37
2022/10/26 09:51:47;;;;;;;7.60;1.55;;;;;;;20.93;65.81;99734.84;7317002;19;129697;-37
2022/10/26 09:54:16;;;;;;;8.90;1.88;;;;;;;20.93;66.09;99729.63;7318559;19;129152;-37
2022/10/26 09:56:45;;;;;;;18.25;3.90;;;;;;;20.95;66.27;99739.94;7315779;19;130661;-38
2022/10/26 09:59:11;;;;;;;14.38;2.20;;;;;;;20.94;65.93;99728.66;7318094;19;129351;-37
2022/10/26 10:01:37;;;;;;;;;;;;;;;20.99;67.80;99741.38;7319880;19;128612;-37
2022/10/26 10:04:11;;;;;;;8.95;1.88;;;;;;;20.93;66.64;99736.63;7317728;19;129194;-37
2022/10/26 10:06:37;;;;;;;8.52;1.70;;;;;;;20.95;65.81;99735.53;7315796;19;129469;-38
2022/10/26 10:09:19;;;;;;;16.65;3.03;;;;;;;20.94;66.10;99736.47;7316942;19;129306;-37
2022/10/26 10:11:57;;;;;;;14.07;2.20;;;;;;;20.95;66.86;99738.16;7318493;19;128868;-38
2022/10/26 10:14:25;;;;;;;10.95;2.13;;;;;;;20.91;66.02;99735.94;7319367;19;129721;-37
2022/10/26 10:17:00;;;;;;;17.70;3.50;;;;;;;20.94;66.82;99733.06;7315529;19;129604;-37
2022/10/26 10:19:30;;;;;;;10.68;2.25;;;;;;;20.93;66.71;99739.22;7314580;19;129417;-38
2022/10/26 10:22:08;;;;;;;9.05;1.60;;;;;;;20.88;66.58;99734.41;7316913;19;129399;-38
2022/10/26 10:24:35;;;;;;;10.68;2.30;;;;;;;20.84;65.99;99719.94;7316797;19;129405;-37
2022/10/26 10:27:16;;;;;;;8.23;1.65;;;;;;;20.93;66.37;99734.84;7315492;19;129155;-37
2022/10/26 10:29:49;;;;;;;11.57;2.17;;;;;;;20.93;67.31;99736.63;7318876;19;130121;-37
2022/10/26 10:32:21;;;;;;;6.80;1.50;;;;;;;20.89;66.39;99714.34;7318322;19;128962;-36
2022/10/26 10:34:54;;;;;;;8.55;1.67;;;;;;;20.92;67.14;99725.38;7317306;19;129044;-37
2022/10/26 10:37:31;;;;;;;7.30;1.48;;;;;;;20.91;66.54;99728.91;7314867;19;131251;-37
2022/10/26 10:40:03;;;;;;;4.80;1.25;;;;;;;20.93;66.46;99726.16;7315405;19;129172;-38
2022/10/26 10:42:32;;;;;;;29.95;5.93;;;;;;;20.92;66.03;99733.19;7315011;19;129232;-36
2022/10/26 10:44:59;;;;;;;15.27;3.67;;;;;;;20.93;66.33;99719.16;7309532;19;129160;-38
2022/10/26 10:47:29;;;;;;;6.47;1.25;;;;;;;20.92;66.39;99730.59;7315348;19;130721;-37
2022/10/26 10:49:57;;;;;;;7.82;1.48;;;;;;;20.92;66.11;99733.19;7317072;19;129368;-37
2022/10/26 10:52:26;;;;;;;11.55;1.98;;;;;;;20.91;66.80;99723.69;7318191;19;129615;-37
2022/10/26 10:55:07;;;;;;;15.07;3.25;;;;;;;20.90;67.36;99727.28;7316595;19;129747;-37
2022/10/26 10:57:59;;;;;;;9.23;1.73;;;;;;;20.85;67.44;99712.94;7314200;19;131182;-37
2022/10/26 11:00:25;;;;;;;11.48;1.98;;;;;;;20.84;66.57;99717.31;7314500;19;129211;-38
2022/10/26 11:03:30;;;;;;;9.02;1.80;;;;;;;20.94;67.42;99717.38;7317370;19;129272;-37
2022/10/26 11:06:04;;;;;;;5.03;1.00;;;;;;;20.94;66.61;99722.63;7314484;19;129210;-38
2022/10/26 11:08:45;;;;;;;10.43;1.98;;;;;;;20.93;67.09;99715.72;7315631;19;129753;-37
2022/10/26 11:11:16;;;;;;;8.75;1.55;;;;;;;20.87;66.61;99696.19;7318491;19;129751;-37
2022/10/26 11:14:11;;;;;;;8.85;1.80;;;;;;;20.97;66.81;99717.13;7316069;19;128825;-37
2022/10/26 11:16:42;;;;;;;7.05;1.50;;;;;;;20.82;66.69;99697.53;7313818;19;129887;-38
2022/10/26 11:19:32;;;;;;;8.13;1.58;;;;;;;20.95;67.18;99712.03;7316318;19;129241;-37
2022/10/26 11:21:57;;;;;;;3.92;1.15;;;;;;;20.95;65.47;99708.56;7315108;19;128853;-37
2022/10/26 11:24:33;;;;;;;11.93;2.03;;;;;;;20.95;66.59;99711.19;7317006;19;129097;-37
2022/10/26 11:27:11;;;;;;;14.07;2.38;;;;;;;20.85;66.61;99692.88;7314315;19;129121;-37
2022/10/26 11:29:44;;;;;;;7.55;1.45;;;;;;;20.90;66.66;99711.59;7316401;19;129231;-37
2022/10/26 11:32:20;;;;;;;8.93;1.90;;;;;;;20.91;66.86;99712.44;7316674;19;129936;-36
2022/10/26 11:35:18;;;;;;;8.48;1.63;;;;;;;20.90;66.40;99700.31;7314892;19;128914;-39
2022/10/26 11:38:02;;;;;;;6.67;1.40;;;;;;;20.89;67.90;99709.91;7313021;19;129678;-37
2022/10/26 11:40:44;;;;;;;6.80;1.40;;;;;;;20.89;67.04;99703.88;7312643;19;129186;-37